Duluth International Airport
KDLH : rendu visible

Aérodrome :











RETROUVEZ-NOUS SUR...

 
LOGIN :

S'inscrire | Disclaimer

   EN    FR    IT 

 









Légende :    VFR   VFR Marginal   IFR   IFR Intensif   IFR Très Intensif
Visi : 
Plafond : 
>= 8 km
>= 3000ft
5 à 8 km
1000 à 3000 ft
1500m à 5 km
500 à 1000 ft
800 à 1500m
200 à 500 ft
< 800m
< 200 ft
Symboles :   Orages  Brouillard  Fortes neiges  Fortes précipitations  Vent > 20 kt






- Altitude de l'aérodrome : 1428 ft
- Code IATA : DLH


KDLH - Duluth International

DERNIER METAR :
  • 021555Z 11011KT 10SM OVC049 04/01 A3002 RMK AO2 RAE1457 SLP184 P0000 T00390006

METARs EXPIRÉS :
  • 021455Z 10011KT 10SM -RA OVC047 03/00 A3004 RMK AO2 RAB24 SLP191 P0000 60000 T00280000 58004
  • 021355Z 11011KT 10SM OVC046 02/00 A3005 RMK AO2 SLP195 T00220000
  • 021255Z 10009KT 10SM OVC075 02/00 A3006 RMK AO2 SLP197 T00170000

TAF KDLH
Valide du 02 à 13h jusqu'au 03 à 12h UTC


021300Z 0213/0312 10006KT 6SM -RA BR OVC050
FM021600 10014G20KT P6SM VCSH OVC045
FM022200 08016G20KT P6SM VCSH OVC045
FM030300 09012KT 5SM -RA BR OVC015
FM030600 09013KT 3SM -RA BR OVC007



MET'MAP, la Météo Aéronautique d'un coup d'oeil ! - Copyright ORBIFLY Décembre 2007 - Disclaimer

ORBIFLY MET'MAP TEAM :

Programmation & Développement : Alexandra Zaïnal
Sur une idée originale de : Baudouin d'Aumeries
Assistance à la programmation : Marc-Olivier Méhu
Soutien technique & logistique : Manuel Goepfert

Contact : metmap@orbifly.com




SOURCES & CREDITS :

   NOAA       Earth
Advisory